sensor_id;sensor_type;location;lat;lon;timestamp;P1;durP1;ratioP1;P2;durP2;ratioP2
43560;SDS011;32305;46.410;17.394;2022-08-19T00:02:02;4.63;;;4.07;;
43560;SDS011;32305;46.410;17.394;2022-08-19T00:04:32;4.22;;;3.78;;
43560;SDS011;32305;46.410;17.394;2022-08-19T00:07:04;4.95;;;4.43;;
43560;SDS011;32305;46.410;17.394;2022-08-19T00:09:32;4.90;;;4.33;;
43560;SDS011;32305;46.410;17.394;2022-08-19T00:12:02;4.70;;;4.05;;
43560;SDS011;32305;46.410;17.394;2022-08-19T00:14:30;4.28;;;3.88;;
43560;SDS011;32305;46.410;17.394;2022-08-19T00:16:58;3.60;;;3.30;;
43560;SDS011;32305;46.410;17.394;2022-08-19T00:19:26;5.32;;;4.55;;
43560;SDS011;32305;46.410;17.394;2022-08-19T00:21:53;5.00;;;4.25;;
43560;SDS011;32305;46.410;17.394;2022-08-19T00:24:22;7.30;;;5.00;;
43560;SDS011;32305;46.410;17.394;2022-08-19T00:26:50;4.28;;;3.88;;
43560;SDS011;32305;46.410;17.394;2022-08-19T00:29:19;3.88;;;3.58;;
43560;SDS011;32305;46.410;17.394;2022-08-19T00:31:47;4.45;;;3.65;;
43560;SDS011;32305;46.410;17.394;2022-08-19T00:34:16;4.15;;;3.80;;
43560;SDS011;32305;46.410;17.394;2022-08-19T00:36:44;4.50;;;4.10;;
43560;SDS011;32305;46.410;17.394;2022-08-19T00:39:11;4.93;;;4.43;;
43560;SDS011;32305;46.410;17.394;2022-08-19T00:41:40;4.75;;;4.03;;
43560;SDS011;32305;46.410;17.394;2022-08-19T00:44:09;5.68;;;4.80;;
43560;SDS011;32305;46.410;17.394;2022-08-19T00:46:41;4.47;;;4.07;;
43560;SDS011;32305;46.410;17.394;2022-08-19T00:49:24;4.43;;;4.03;;
43560;SDS011;32305;46.410;17.394;2022-08-19T00:52:04;4.95;;;3.92;;
43560;SDS011;32305;46.410;17.394;2022-08-19T00:54:36;5.47;;;4.47;;
43560;SDS011;32305;46.410;17.394;2022-08-19T00:57:07;4.97;;;4.47;;
43560;SDS011;32305;46.410;17.394;2022-08-19T00:59:39;4.85;;;4.30;;
43560;SDS011;32305;46.410;17.394;2022-08-19T01:02:28;4.78;;;4.35;;
43560;SDS011;32305;46.410;17.394;2022-08-19T01:04:57;6.03;;;4.93;;
43560;SDS011;32305;46.410;17.394;2022-08-19T01:07:26;4.65;;;4.22;;
43560;SDS011;32305;46.410;17.394;2022-08-19T01:10:01;5.10;;;4.60;;
43560;SDS011;32305;46.410;17.394;2022-08-19T01:12:30;4.82;;;4.28;;
43560;SDS011;32305;46.410;17.394;2022-08-19T01:14:57;4.85;;;4.13;;
43560;SDS011;32305;46.410;17.394;2022-08-19T01:17:26;4.30;;;3.90;;
43560;SDS011;32305;46.410;17.394;2022-08-19T01:19:54;4.05;;;3.70;;
43560;SDS011;32305;46.410;17.394;2022-08-19T01:22:36;6.45;;;4.82;;
43560;SDS011;32305;46.410;17.394;2022-08-19T01:25:10;4.43;;;4.03;;
43560;SDS011;32305;46.410;17.394;2022-08-19T01:27:42;5.22;;;4.13;;
43560;SDS011;32305;46.410;17.394;2022-08-19T01:30:13;4.28;;;3.88;;
43560;SDS011;32305;46.410;17.394;2022-08-19T01:32:43;5.63;;;4.43;;
43560;SDS011;32305;46.410;17.394;2022-08-19T01:35:11;5.05;;;4.35;;
43560;SDS011;32305;46.410;17.394;2022-08-19T01:37:43;4.53;;;4.13;;
43560;SDS011;32305;46.410;17.394;2022-08-19T01:40:17;4.35;;;3.95;;
43560;SDS011;32305;46.410;17.394;2022-08-19T01:42:49;4.60;;;4.20;;
43560;SDS011;32305;46.410;17.394;2022-08-19T01:45:18;4.30;;;3.90;;
43560;SDS011;32305;46.410;17.394;2022-08-19T01:47:47;4.57;;;4.17;;
43560;SDS011;32305;46.410;17.394;2022-08-19T01:50:27;4.97;;;4.18;;
43560;SDS011;32305;46.410;17.394;2022-08-19T01:52:56;4.80;;;4.30;;
43560;SDS011;32305;46.410;17.394;2022-08-19T01:55:33;4.57;;;4.13;;
43560;SDS011;32305;46.410;17.394;2022-08-19T01:58:06;4.82;;;4.22;;
43560;SDS011;32305;46.410;17.394;2022-08-19T02:00:41;5.35;;;4.22;;
43560;SDS011;32305;46.410;17.394;2022-08-19T02:03:11;4.55;;;4.00;;
43560;SDS011;32305;46.410;17.394;2022-08-19T02:05:41;4.18;;;3.72;;
43560;SDS011;32305;46.410;17.394;2022-08-19T02:10:38;4.65;;;4.25;;
43560;SDS011;32305;46.410;17.394;2022-08-19T02:13:08;5.28;;;3.95;;
43560;SDS011;32305;46.410;17.394;2022-08-19T02:15:36;5.00;;;4.28;;
43560;SDS011;32305;46.410;17.394;2022-08-19T02:18:04;4.88;;;4.30;;
43560;SDS011;32305;46.410;17.394;2022-08-19T02:20:31;5.00;;;3.45;;
43560;SDS011;32305;46.410;17.394;2022-08-19T02:22:59;4.70;;;4.00;;
43560;SDS011;32305;46.410;17.394;2022-08-19T02:25:27;4.45;;;3.78;;
43560;SDS011;32305;46.410;17.394;2022-08-19T02:27:54;3.90;;;3.50;;
43560;SDS011;32305;46.410;17.394;2022-08-19T02:30:22;4.25;;;3.85;;
43560;SDS011;32305;46.410;17.394;2022-08-19T02:32:50;4.72;;;4.18;;
43560;SDS011;32305;46.410;17.394;2022-08-19T02:35:18;4.53;;;4.13;;
43560;SDS011;32305;46.410;17.394;2022-08-19T02:37:46;4.80;;;4.30;;
43560;SDS011;32305;46.410;17.394;2022-08-19T02:40:33;3.90;;;3.40;;
43560;SDS011;32305;46.410;17.394;2022-08-19T02:43:05;4.28;;;3.88;;
43560;SDS011;32305;46.410;17.394;2022-08-19T02:45:35;4.22;;;3.83;;
43560;SDS011;32305;46.410;17.394;2022-08-19T02:48:07;4.00;;;3.70;;
43560;SDS011;32305;46.410;17.394;2022-08-19T02:50:46;4.68;;;4.13;;
43560;SDS011;32305;46.410;17.394;2022-08-19T02:53:19;4.28;;;3.90;;
43560;SDS011;32305;46.410;17.394;2022-08-19T02:55:48;4.38;;;3.97;;
43560;SDS011;32305;46.410;17.394;2022-08-19T02:58:17;4.30;;;3.90;;
43560;SDS011;32305;46.410;17.394;2022-08-19T03:00:47;4.40;;;4.00;;
43560;SDS011;32305;46.410;17.394;2022-08-19T03:03:17;4.50;;;4.00;;
43560;SDS011;32305;46.410;17.394;2022-08-19T03:05:45;4.25;;;3.80;;
43560;SDS011;32305;46.410;17.394;2022-08-19T03:08:22;3.40;;;3.10;;
43560;SDS011;32305;46.410;17.394;2022-08-19T03:10:50;6.55;;;3.65;;
43560;SDS011;32305;46.410;17.394;2022-08-19T03:13:19;4.18;;;3.55;;
43560;SDS011;32305;46.410;17.394;2022-08-19T03:15:47;4.22;;;3.83;;
43560;SDS011;32305;46.410;17.394;2022-08-19T03:18:14;5.95;;;4.10;;
43560;SDS011;32305;46.410;17.394;2022-08-19T03:20:44;3.75;;;3.40;;
43560;SDS011;32305;46.410;17.394;2022-08-19T03:23:15;4.75;;;4.35;;
43560;SDS011;32305;46.410;17.394;2022-08-19T03:25:44;4.05;;;3.70;;
43560;SDS011;32305;46.410;17.394;2022-08-19T03:28:33;3.72;;;3.40;;
43560;SDS011;32305;46.410;17.394;2022-08-19T03:31:05;5.22;;;3.60;;
43560;SDS011;32305;46.410;17.394;2022-08-19T03:33:54;4.05;;;3.63;;
43560;SDS011;32305;46.410;17.394;2022-08-19T03:36:23;4.10;;;3.80;;
43560;SDS011;32305;46.410;17.394;2022-08-19T03:38:56;4.13;;;3.72;;
43560;SDS011;32305;46.410;17.394;2022-08-19T03:41:33;3.72;;;3.28;;
43560;SDS011;32305;46.410;17.394;2022-08-19T03:44:19;4.13;;;3.70;;
43560;SDS011;32305;46.410;17.394;2022-08-19T03:46:49;3.85;;;3.28;;
43560;SDS011;32305;46.410;17.394;2022-08-19T03:49:19;5.80;;;4.30;;
43560;SDS011;32305;46.410;17.394;2022-08-19T03:51:54;3.35;;;3.05;;
43560;SDS011;32305;46.410;17.394;2022-08-19T03:54:24;4.35;;;3.63;;
43560;SDS011;32305;46.410;17.394;2022-08-19T03:56:52;3.95;;;3.58;;
43560;SDS011;32305;46.410;17.394;2022-08-19T03:59:22;4.75;;;3.42;;
43560;SDS011;32305;46.410;17.394;2022-08-19T04:01:53;3.55;;;3.25;;
43560;SDS011;32305;46.410;17.394;2022-08-19T04:04:22;4.60;;;3.83;;
43560;SDS011;32305;46.410;17.394;2022-08-19T04:06:54;3.08;;;2.78;;
43560;SDS011;32305;46.410;17.394;2022-08-19T04:09:24;4.95;;;4.10;;
43560;SDS011;32305;46.410;17.394;2022-08-19T04:11:53;3.65;;;3.25;;
43560;SDS011;32305;46.410;17.394;2022-08-19T04:14:23;5.63;;;3.77;;
43560;SDS011;32305;46.410;17.394;2022-08-19T04:17:00;4.68;;;3.70;;
43560;SDS011;32305;46.410;17.394;2022-08-19T04:19:32;4.55;;;3.63;;
43560;SDS011;32305;46.410;17.394;2022-08-19T04:22:00;3.67;;;3.15;;
43560;SDS011;32305;46.410;17.394;2022-08-19T04:24:31;3.75;;;3.45;;
43560;SDS011;32305;46.410;17.394;2022-08-19T04:27:02;4.38;;;3.85;;
43560;SDS011;32305;46.410;17.394;2022-08-19T04:29:30;4.03;;;3.08;;
43560;SDS011;32305;46.410;17.394;2022-08-19T04:31:58;4.72;;;4.00;;
43560;SDS011;32305;46.410;17.394;2022-08-19T04:34:34;4.70;;;3.10;;
43560;SDS011;32305;46.410;17.394;2022-08-19T04:37:22;5.10;;;3.70;;
43560;SDS011;32305;46.410;17.394;2022-08-19T04:39:51;5.68;;;3.63;;
43560;SDS011;32305;46.410;17.394;2022-08-19T04:42:38;4.97;;;3.28;;
43560;SDS011;32305;46.410;17.394;2022-08-19T04:45:06;5.75;;;4.13;;
43560;SDS011;32305;46.410;17.394;2022-08-19T04:47:38;4.00;;;3.60;;
43560;SDS011;32305;46.410;17.394;2022-08-19T04:50:23;3.92;;;3.53;;
43560;SDS011;32305;46.410;17.394;2022-08-19T04:52:51;5.30;;;3.60;;
43560;SDS011;32305;46.410;17.394;2022-08-19T04:55:19;4.03;;;3.63;;
43560;SDS011;32305;46.410;17.394;2022-08-19T04:57:47;4.35;;;3.50;;
43560;SDS011;32305;46.410;17.394;2022-08-19T05:00:15;4.53;;;3.40;;
43560;SDS011;32305;46.410;17.394;2022-08-19T05:02:42;3.70;;;3.05;;
43560;SDS011;32305;46.410;17.394;2022-08-19T05:05:10;3.75;;;3.38;;
43560;SDS011;32305;46.410;17.394;2022-08-19T05:07:37;4.60;;;4.03;;
43560;SDS011;32305;46.410;17.394;2022-08-19T05:10:05;5.60;;;3.38;;
43560;SDS011;32305;46.410;17.394;2022-08-19T05:12:33;3.83;;;3.53;;
43560;SDS011;32305;46.410;17.394;2022-08-19T05:15:01;5.38;;;3.80;;
43560;SDS011;32305;46.410;17.394;2022-08-19T05:17:30;4.82;;;3.60;;
43560;SDS011;32305;46.410;17.394;2022-08-19T05:20:04;5.10;;;3.45;;
43560;SDS011;32305;46.410;17.394;2022-08-19T05:22:53;5.45;;;4.07;;
43560;SDS011;32305;46.410;17.394;2022-08-19T05:25:20;4.20;;;3.80;;
43560;SDS011;32305;46.410;17.394;2022-08-19T05:27:48;4.43;;;3.63;;
43560;SDS011;32305;46.410;17.394;2022-08-19T05:30:16;4.95;;;3.58;;
43560;SDS011;32305;46.410;17.394;2022-08-19T05:33:04;5.53;;;4.28;;
43560;SDS011;32305;46.410;17.394;2022-08-19T05:35:31;5.97;;;4.22;;
43560;SDS011;32305;46.410;17.394;2022-08-19T05:38:00;5.57;;;4.28;;
43560;SDS011;32305;46.410;17.394;2022-08-19T05:40:27;7.15;;;4.45;;
43560;SDS011;32305;46.410;17.394;2022-08-19T05:42:55;9.77;;;4.32;;
43560;SDS011;32305;46.410;17.394;2022-08-19T05:45:22;10.05;;;4.50;;
43560;SDS011;32305;46.410;17.394;2022-08-19T05:47:50;8.40;;;4.63;;
43560;SDS011;32305;46.410;17.394;2022-08-19T05:50:17;13.52;;;4.88;;
43560;SDS011;32305;46.410;17.394;2022-08-19T05:52:44;7.65;;;4.35;;
43560;SDS011;32305;46.410;17.394;2022-08-19T05:55:15;11.13;;;4.45;;
43560;SDS011;32305;46.410;17.394;2022-08-19T05:57:42;5.70;;;4.60;;
43560;SDS011;32305;46.410;17.394;2022-08-19T06:00:10;7.00;;;4.45;;
43560;SDS011;32305;46.410;17.394;2022-08-19T06:02:39;8.20;;;4.70;;
43560;SDS011;32305;46.410;17.394;2022-08-19T06:05:07;6.40;;;4.88;;
43560;SDS011;32305;46.410;17.394;2022-08-19T06:07:36;9.85;;;5.28;;
43560;SDS011;32305;46.410;17.394;2022-08-19T06:10:04;11.40;;;5.32;;
43560;SDS011;32305;46.410;17.394;2022-08-19T06:12:34;12.00;;;5.28;;
43560;SDS011;32305;46.410;17.394;2022-08-19T06:15:04;13.60;;;5.15;;
43560;SDS011;32305;46.410;17.394;2022-08-19T06:17:36;11.15;;;4.70;;
43560;SDS011;32305;46.410;17.394;2022-08-19T06:20:05;9.48;;;5.80;;
43560;SDS011;32305;46.410;17.394;2022-08-19T06:22:41;9.40;;;5.57;;
43560;SDS011;32305;46.410;17.394;2022-08-19T06:25:10;9.75;;;5.63;;
43560;SDS011;32305;46.410;17.394;2022-08-19T06:27:39;10.95;;;5.80;;
43560;SDS011;32305;46.410;17.394;2022-08-19T06:30:27;10.65;;;5.53;;
43560;SDS011;32305;46.410;17.394;2022-08-19T06:32:55;11.45;;;5.35;;
43560;SDS011;32305;46.410;17.394;2022-08-19T06:35:22;11.18;;;5.90;;
43560;SDS011;32305;46.410;17.394;2022-08-19T06:37:49;9.65;;;5.43;;
43560;SDS011;32305;46.410;17.394;2022-08-19T06:40:16;13.02;;;5.80;;
43560;SDS011;32305;46.410;17.394;2022-08-19T06:42:44;9.88;;;4.80;;
43560;SDS011;32305;46.410;17.394;2022-08-19T06:45:21;9.68;;;5.32;;
43560;SDS011;32305;46.410;17.394;2022-08-19T06:47:50;14.90;;;5.88;;
43560;SDS011;32305;46.410;17.394;2022-08-19T06:50:20;7.72;;;5.03;;
43560;SDS011;32305;46.410;17.394;2022-08-19T06:52:51;9.48;;;5.22;;
43560;SDS011;32305;46.410;17.394;2022-08-19T06:55:19;6.18;;;4.72;;
43560;SDS011;32305;46.410;17.394;2022-08-19T06:57:46;14.32;;;5.95;;
43560;SDS011;32305;46.410;17.394;2022-08-19T07:00:14;9.60;;;5.53;;
43560;SDS011;32305;46.410;17.394;2022-08-19T07:02:42;9.82;;;4.75;;
43560;SDS011;32305;46.410;17.394;2022-08-19T07:07:50;5.57;;;4.75;;
43560;SDS011;32305;46.410;17.394;2022-08-19T07:10:17;14.32;;;5.03;;
43560;SDS011;32305;46.410;17.394;2022-08-19T07:12:45;11.55;;;5.03;;
43560;SDS011;32305;46.410;17.394;2022-08-19T07:15:12;6.70;;;4.75;;
43560;SDS011;32305;46.410;17.394;2022-08-19T07:17:41;7.00;;;5.25;;
43560;SDS011;32305;46.410;17.394;2022-08-19T07:20:10;9.77;;;4.80;;
43560;SDS011;32305;46.410;17.394;2022-08-19T07:22:38;7.18;;;5.00;;
43560;SDS011;32305;46.410;17.394;2022-08-19T07:25:07;7.97;;;4.78;;
43560;SDS011;32305;46.410;17.394;2022-08-19T07:27:35;7.53;;;5.03;;
43560;SDS011;32305;46.410;17.394;2022-08-19T07:30:05;6.13;;;4.53;;
43560;SDS011;32305;46.410;17.394;2022-08-19T07:32:37;14.65;;;5.82;;
43560;SDS011;32305;46.410;17.394;2022-08-19T07:35:05;5.95;;;4.75;;
43560;SDS011;32305;46.410;17.394;2022-08-19T07:37:33;7.78;;;5.25;;
43560;SDS011;32305;46.410;17.394;2022-08-19T07:40:04;5.45;;;4.70;;
43560;SDS011;32305;46.410;17.394;2022-08-19T07:42:33;8.90;;;5.50;;
43560;SDS011;32305;46.410;17.394;2022-08-19T07:45:00;11.18;;;5.35;;
43560;SDS011;32305;46.410;17.394;2022-08-19T07:47:28;9.00;;;5.68;;
43560;SDS011;32305;46.410;17.394;2022-08-19T07:50:17;7.15;;;4.82;;
43560;SDS011;32305;46.410;17.394;2022-08-19T07:52:46;10.85;;;5.30;;
43560;SDS011;32305;46.410;17.394;2022-08-19T07:55:17;7.70;;;4.37;;
43560;SDS011;32305;46.410;17.394;2022-08-19T07:58:07;10.13;;;5.00;;
43560;SDS011;32305;46.410;17.394;2022-08-19T08:00:35;7.18;;;5.05;;
43560;SDS011;32305;46.410;17.394;2022-08-19T08:03:02;7.70;;;4.95;;
43560;SDS011;32305;46.410;17.394;2022-08-19T08:05:30;7.28;;;4.80;;
43560;SDS011;32305;46.410;17.394;2022-08-19T08:08:17;9.70;;;4.93;;
43560;SDS011;32305;46.410;17.394;2022-08-19T08:11:13;8.00;;;5.55;;
43560;SDS011;32305;46.410;17.394;2022-08-19T08:13:42;9.45;;;5.25;;
43560;SDS011;32305;46.410;17.394;2022-08-19T08:16:10;8.10;;;4.93;;
43560;SDS011;32305;46.410;17.394;2022-08-19T08:18:39;7.80;;;5.10;;
43560;SDS011;32305;46.410;17.394;2022-08-19T08:21:18;5.00;;;4.47;;
43560;SDS011;32305;46.410;17.394;2022-08-19T08:23:45;9.18;;;5.53;;
43560;SDS011;32305;46.410;17.394;2022-08-19T08:26:13;7.20;;;4.72;;
43560;SDS011;32305;46.410;17.394;2022-08-19T08:28:44;7.15;;;4.95;;
43560;SDS011;32305;46.410;17.394;2022-08-19T08:31:15;7.32;;;5.18;;
43560;SDS011;32305;46.410;17.394;2022-08-19T08:33:42;10.13;;;5.47;;
43560;SDS011;32305;46.410;17.394;2022-08-19T08:36:10;8.02;;;4.60;;
43560;SDS011;32305;46.410;17.394;2022-08-19T08:38:38;6.60;;;4.57;;
43560;SDS011;32305;46.410;17.394;2022-08-19T08:44:01;6.18;;;4.38;;
43560;SDS011;32305;46.410;17.394;2022-08-19T08:46:34;7.50;;;4.90;;
43560;SDS011;32305;46.410;17.394;2022-08-19T08:49:20;10.48;;;4.97;;
43560;SDS011;32305;46.410;17.394;2022-08-19T08:52:02;10.45;;;6.22;;
43560;SDS011;32305;46.410;17.394;2022-08-19T08:54:35;5.25;;;4.75;;
43560;SDS011;32305;46.410;17.394;2022-08-19T08:57:39;7.50;;;5.10;;
43560;SDS011;32305;46.410;17.394;2022-08-19T09:00:27;9.30;;;5.20;;
43560;SDS011;32305;46.410;17.394;2022-08-19T09:02:58;8.55;;;4.97;;
43560;SDS011;32305;46.410;17.394;2022-08-19T09:05:32;7.57;;;5.50;;
43560;SDS011;32305;46.410;17.394;2022-08-19T09:11:25;9.00;;;5.18;;
43560;SDS011;32305;46.410;17.394;2022-08-19T09:14:23;9.57;;;4.78;;
43560;SDS011;32305;46.410;17.394;2022-08-19T09:17:18;10.60;;;5.40;;
43560;SDS011;32305;46.410;17.394;2022-08-19T09:19:59;6.75;;;4.63;;
43560;SDS011;32305;46.410;17.394;2022-08-19T09:22:41;9.70;;;5.13;;
43560;SDS011;32305;46.410;17.394;2022-08-19T09:25:14;5.88;;;4.57;;
43560;SDS011;32305;46.410;17.394;2022-08-19T09:27:55;11.55;;;6.05;;
43560;SDS011;32305;46.410;17.394;2022-08-19T09:30:30;7.15;;;4.82;;
43560;SDS011;32305;46.410;17.394;2022-08-19T09:33:00;9.63;;;5.75;;
43560;SDS011;32305;46.410;17.394;2022-08-19T09:35:28;10.05;;;5.97;;
43560;SDS011;32305;46.410;17.394;2022-08-19T09:37:57;6.25;;;5.13;;
43560;SDS011;32305;46.410;17.394;2022-08-19T09:40:28;8.73;;;5.22;;
43560;SDS011;32305;46.410;17.394;2022-08-19T09:43:03;8.52;;;5.38;;
43560;SDS011;32305;46.410;17.394;2022-08-19T09:45:38;8.93;;;5.35;;
43560;SDS011;32305;46.410;17.394;2022-08-19T09:48:05;8.45;;;4.50;;
43560;SDS011;32305;46.410;17.394;2022-08-19T09:50:34;7.47;;;5.38;;
43560;SDS011;32305;46.410;17.394;2022-08-19T09:53:17;5.72;;;4.65;;
43560;SDS011;32305;46.410;17.394;2022-08-19T09:55:45;10.10;;;4.65;;
43560;SDS011;32305;46.410;17.394;2022-08-19T09:58:12;7.05;;;4.60;;
43560;SDS011;32305;46.410;17.394;2022-08-19T10:00:40;5.03;;;4.50;;
43560;SDS011;32305;46.410;17.394;2022-08-19T10:03:07;8.40;;;4.53;;
43560;SDS011;32305;46.410;17.394;2022-08-19T10:05:35;7.18;;;4.22;;
43560;SDS011;32305;46.410;17.394;2022-08-19T10:08:17;7.93;;;5.38;;
43560;SDS011;32305;46.410;17.394;2022-08-19T10:10:53;7.18;;;4.15;;
43560;SDS011;32305;46.410;17.394;2022-08-19T10:13:25;10.15;;;4.45;;
43560;SDS011;32305;46.410;17.394;2022-08-19T10:15:55;6.78;;;4.10;;
43560;SDS011;32305;46.410;17.394;2022-08-19T10:18:28;12.02;;;4.28;;
43560;SDS011;32305;46.410;17.394;2022-08-19T10:21:02;9.95;;;4.93;;
43560;SDS011;32305;46.410;17.394;2022-08-19T10:23:37;12.35;;;4.35;;
43560;SDS011;32305;46.410;17.394;2022-08-19T10:26:07;6.80;;;3.67;;
43560;SDS011;32305;46.410;17.394;2022-08-19T10:28:34;7.13;;;3.67;;
43560;SDS011;32305;46.410;17.394;2022-08-19T10:31:05;8.77;;;4.20;;
43560;SDS011;32305;46.410;17.394;2022-08-19T10:33:34;8.60;;;4.90;;
43560;SDS011;32305;46.410;17.394;2022-08-19T10:36:21;5.38;;;3.97;;
43560;SDS011;32305;46.410;17.394;2022-08-19T10:38:51;8.55;;;4.95;;
43560;SDS011;32305;46.410;17.394;2022-08-19T10:41:24;12.18;;;4.05;;
43560;SDS011;32305;46.410;17.394;2022-08-19T10:43:55;9.77;;;5.28;;
43560;SDS011;32305;46.410;17.394;2022-08-19T10:46:29;6.18;;;4.05;;
43560;SDS011;32305;46.410;17.394;2022-08-19T10:48:59;10.52;;;4.22;;
43560;SDS011;32305;46.410;17.394;2022-08-19T10:51:27;11.60;;;4.20;;
43560;SDS011;32305;46.410;17.394;2022-08-19T10:54:15;11.95;;;4.60;;
43560;SDS011;32305;46.410;17.394;2022-08-19T10:56:56;9.35;;;3.85;;
43560;SDS011;32305;46.410;17.394;2022-08-19T10:59:27;9.73;;;3.88;;
43560;SDS011;32305;46.410;17.394;2022-08-19T11:02:02;14.38;;;4.57;;
43560;SDS011;32305;46.410;17.394;2022-08-19T11:04:31;11.77;;;3.40;;
43560;SDS011;32305;46.410;17.394;2022-08-19T11:07:03;6.03;;;3.25;;
43560;SDS011;32305;46.410;17.394;2022-08-19T11:12:03;7.13;;;3.63;;
43560;SDS011;32305;46.410;17.394;2022-08-19T11:14:30;6.60;;;3.33;;
43560;SDS011;32305;46.410;17.394;2022-08-19T11:16:59;7.45;;;3.22;;
43560;SDS011;32305;46.410;17.394;2022-08-19T11:19:30;12.43;;;3.35;;
43560;SDS011;32305;46.410;17.394;2022-08-19T11:21:57;12.00;;;3.42;;
43560;SDS011;32305;46.410;17.394;2022-08-19T11:24:30;10.43;;;3.00;;
43560;SDS011;32305;46.410;17.394;2022-08-19T11:27:00;8.32;;;3.20;;
43560;SDS011;32305;46.410;17.394;2022-08-19T11:29:33;9.30;;;3.40;;
43560;SDS011;32305;46.410;17.394;2022-08-19T11:32:04;18.30;;;3.33;;
43560;SDS011;32305;46.410;17.394;2022-08-19T11:34:35;8.63;;;3.20;;
43560;SDS011;32305;46.410;17.394;2022-08-19T11:37:03;7.88;;;3.15;;
43560;SDS011;32305;46.410;17.394;2022-08-19T11:39:32;8.00;;;3.90;;
43560;SDS011;32305;46.410;17.394;2022-08-19T11:42:02;6.55;;;3.65;;
43560;SDS011;32305;46.410;17.394;2022-08-19T11:44:50;9.70;;;3.17;;
43560;SDS011;32305;46.410;17.394;2022-08-19T11:47:19;7.03;;;3.53;;
43560;SDS011;32305;46.410;17.394;2022-08-19T11:49:46;10.43;;;3.85;;
43560;SDS011;32305;46.410;17.394;2022-08-19T11:52:14;10.63;;;3.75;;
43560;SDS011;32305;46.410;17.394;2022-08-19T11:54:41;11.30;;;3.65;;
43560;SDS011;32305;46.410;17.394;2022-08-19T11:57:08;5.65;;;2.30;;
43560;SDS011;32305;46.410;17.394;2022-08-19T11:59:35;6.22;;;3.45;;
43560;SDS011;32305;46.410;17.394;2022-08-19T12:02:02;8.38;;;3.70;;
43560;SDS011;32305;46.410;17.394;2022-08-19T12:04:30;7.72;;;2.53;;
43560;SDS011;32305;46.410;17.394;2022-08-19T12:06:57;8.18;;;2.78;;
43560;SDS011;32305;46.410;17.394;2022-08-19T12:09:24;5.10;;;3.25;;
43560;SDS011;32305;46.410;17.394;2022-08-19T12:11:56;9.65;;;2.85;;
43560;SDS011;32305;46.410;17.394;2022-08-19T12:14:23;7.75;;;2.60;;
43560;SDS011;32305;46.410;17.394;2022-08-19T12:16:50;11.90;;;3.28;;
43560;SDS011;32305;46.410;17.394;2022-08-19T12:19:18;12.60;;;3.25;;
43560;SDS011;32305;46.410;17.394;2022-08-19T12:21:47;8.45;;;2.70;;
43560;SDS011;32305;46.410;17.394;2022-08-19T12:24:15;13.15;;;2.78;;
43560;SDS011;32305;46.410;17.394;2022-08-19T12:26:46;6.47;;;3.22;;
43560;SDS011;32305;46.410;17.394;2022-08-19T12:29:19;6.93;;;3.10;;
43560;SDS011;32305;46.410;17.394;2022-08-19T12:31:49;8.30;;;2.85;;
43560;SDS011;32305;46.410;17.394;2022-08-19T12:34:17;6.80;;;3.15;;
43560;SDS011;32305;46.410;17.394;2022-08-19T12:36:46;13.43;;;3.50;;
43560;SDS011;32305;46.410;17.394;2022-08-19T12:39:15;8.63;;;2.75;;
43560;SDS011;32305;46.410;17.394;2022-08-19T12:41:43;16.73;;;3.40;;
43560;SDS011;32305;46.410;17.394;2022-08-19T12:44:19;8.15;;;3.15;;
43560;SDS011;32305;46.410;17.394;2022-08-19T12:46:57;11.10;;;3.83;;
43560;SDS011;32305;46.410;17.394;2022-08-19T12:49:27;8.27;;;3.15;;
43560;SDS011;32305;46.410;17.394;2022-08-19T12:52:15;9.27;;;2.72;;
43560;SDS011;32305;46.410;17.394;2022-08-19T12:54:48;10.93;;;3.30;;
43560;SDS011;32305;46.410;17.394;2022-08-19T12:57:19;11.80;;;3.17;;
43560;SDS011;32305;46.410;17.394;2022-08-19T12:59:57;6.93;;;3.13;;
43560;SDS011;32305;46.410;17.394;2022-08-19T13:02:25;8.90;;;3.40;;
43560;SDS011;32305;46.410;17.394;2022-08-19T13:04:52;10.98;;;3.50;;
43560;SDS011;32305;46.410;17.394;2022-08-19T13:07:20;6.05;;;2.40;;
43560;SDS011;32305;46.410;17.394;2022-08-19T13:09:47;7.07;;;2.45;;
43560;SDS011;32305;46.410;17.394;2022-08-19T13:12:18;9.73;;;2.70;;
43560;SDS011;32305;46.410;17.394;2022-08-19T13:14:50;7.97;;;2.65;;
43560;SDS011;32305;46.410;17.394;2022-08-19T13:17:18;10.50;;;2.75;;
43560;SDS011;32305;46.410;17.394;2022-08-19T13:19:46;14.00;;;2.88;;
43560;SDS011;32305;46.410;17.394;2022-08-19T13:22:13;6.05;;;3.20;;
43560;SDS011;32305;46.410;17.394;2022-08-19T13:24:43;11.93;;;3.33;;
43560;SDS011;32305;46.410;17.394;2022-08-19T13:27:13;5.93;;;2.42;;
43560;SDS011;32305;46.410;17.394;2022-08-19T13:29:40;10.85;;;3.15;;
43560;SDS011;32305;46.410;17.394;2022-08-19T13:32:28;11.25;;;2.30;;
43560;SDS011;32305;46.410;17.394;2022-08-19T13:35:16;7.85;;;2.13;;
43560;SDS011;32305;46.410;17.394;2022-08-19T13:37:44;8.10;;;2.65;;
43560;SDS011;32305;46.410;17.394;2022-08-19T13:40:13;8.70;;;2.28;;
43560;SDS011;32305;46.410;17.394;2022-08-19T13:42:46;7.95;;;3.45;;
43560;SDS011;32305;46.410;17.394;2022-08-19T13:45:18;7.60;;;2.70;;
43560;SDS011;32305;46.410;17.394;2022-08-19T13:47:48;11.07;;;2.53;;
43560;SDS011;32305;46.410;17.394;2022-08-19T13:50:23;13.05;;;3.20;;
43560;SDS011;32305;46.410;17.394;2022-08-19T13:52:54;12.65;;;3.03;;
43560;SDS011;32305;46.410;17.394;2022-08-19T13:55:23;11.27;;;3.33;;
43560;SDS011;32305;46.410;17.394;2022-08-19T13:57:51;13.77;;;3.30;;
43560;SDS011;32305;46.410;17.394;2022-08-19T14:00:20;18.67;;;3.40;;
43560;SDS011;32305;46.410;17.394;2022-08-19T14:02:51;13.07;;;3.88;;
43560;SDS011;32305;46.410;17.394;2022-08-19T14:05:20;9.85;;;2.88;;
43560;SDS011;32305;46.410;17.394;2022-08-19T14:07:48;7.70;;;2.67;;
43560;SDS011;32305;46.410;17.394;2022-08-19T14:10:16;11.35;;;2.80;;
43560;SDS011;32305;46.410;17.394;2022-08-19T14:12:44;9.25;;;2.30;;
43560;SDS011;32305;46.410;17.394;2022-08-19T14:15:11;11.73;;;4.07;;
43560;SDS011;32305;46.410;17.394;2022-08-19T14:17:41;10.85;;;3.03;;
43560;SDS011;32305;46.410;17.394;2022-08-19T14:20:10;9.38;;;2.08;;
43560;SDS011;32305;46.410;17.394;2022-08-19T14:22:44;11.68;;;3.40;;
43560;SDS011;32305;46.410;17.394;2022-08-19T14:25:14;8.30;;;2.65;;
43560;SDS011;32305;46.410;17.394;2022-08-19T14:27:44;9.38;;;2.33;;
43560;SDS011;32305;46.410;17.394;2022-08-19T14:30:13;9.30;;;2.75;;
43560;SDS011;32305;46.410;17.394;2022-08-19T14:32:43;12.68;;;3.00;;
43560;SDS011;32305;46.410;17.394;2022-08-19T14:35:10;9.30;;;2.80;;
43560;SDS011;32305;46.410;17.394;2022-08-19T14:37:39;16.08;;;3.08;;
43560;SDS011;32305;46.410;17.394;2022-08-19T14:40:12;10.32;;;3.38;;
43560;SDS011;32305;46.410;17.394;2022-08-19T14:42:41;11.27;;;2.22;;
43560;SDS011;32305;46.410;17.394;2022-08-19T14:45:09;8.88;;;3.17;;
43560;SDS011;32305;46.410;17.394;2022-08-19T14:47:38;7.47;;;2.72;;
43560;SDS011;32305;46.410;17.394;2022-08-19T14:50:07;6.43;;;2.08;;
43560;SDS011;32305;46.410;17.394;2022-08-19T14:52:37;10.20;;;2.10;;
43560;SDS011;32305;46.410;17.394;2022-08-19T14:55:05;9.40;;;2.70;;
43560;SDS011;32305;46.410;17.394;2022-08-19T14:57:33;7.75;;;2.88;;
43560;SDS011;32305;46.410;17.394;2022-08-19T15:00:00;4.97;;;2.13;;
43560;SDS011;32305;46.410;17.394;2022-08-19T15:02:28;13.65;;;2.30;;
43560;SDS011;32305;46.410;17.394;2022-08-19T15:05:00;10.45;;;2.63;;
43560;SDS011;32305;46.410;17.394;2022-08-19T15:07:28;11.95;;;2.80;;
43560;SDS011;32305;46.410;17.394;2022-08-19T15:09:56;4.47;;;2.10;;